Norwood Young America, Minnesota
Current Conditions -  °F | °C
As of 2:34 PM on Monday 26 Jan 2015 (Local Time) from KGYL Reporting Station
Broken Clouds Broken Clouds  
Wind Chill: 34°   Ceiling: 4500
Heat Index: 42°   Visibility: 10mi
Dew Point: 37°   Wind: 16mph
Humidity: 82%   Direction: 280°W
Pressure: 29.77"   Gusts: NA
Location:  44.7521°N, 93.9117°W
Report Text: KGYL 262034Z AUTO 28014KT 10SM BKN045 06/03 A2977 RMK AO2 T00550027
Loading
Personal Weather Stations






























Interactive Weather Map New forecast layout! Learn more

10-Day Weather Forecast

Advertisements
Track Severe Weather on mobile